createdAt,value
2017-04-15T00:00:00.816Z,1009.59
2017-04-15T00:01:10.416Z,1009.6
2017-04-15T00:02:20.665Z,1009.53
2017-04-15T00:03:30.596Z,1009.54
2017-04-15T00:04:40.206Z,1009.53
2017-04-15T00:05:50.437Z,1009.53
2017-04-15T00:07:00.671Z,1009.47
2017-04-15T00:08:09.966Z,1009.46
2017-04-15T00:09:19.572Z,1009.45
2017-04-15T00:10:29.812Z,1009.42
2017-04-15T00:11:40.040Z,1009.38
2017-04-15T00:12:49.958Z,1009.38
2017-04-15T00:14:00.199Z,1009.4
2017-04-15T00:15:10.678Z,1009.4
2017-04-15T00:16:20.903Z,1009.36
2017-04-15T00:17:31.263Z,1009.39
2017-04-15T00:18:41.499Z,1009.38
2017-04-15T00:19:51.793Z,1009.27
2017-04-15T00:21:01.403Z,1009.33
2017-04-15T00:22:11.641Z,1009.28
2017-04-15T00:23:21.867Z,1009.23
2017-04-15T00:24:32.099Z,1009.26
2017-04-15T00:25:42.020Z,1009.21
2017-04-15T00:26:51.626Z,1009.23
2017-04-15T00:28:01.858Z,1009.23
2017-04-15T00:29:11.462Z,1009.22
2017-04-15T00:30:21.694Z,1009.2
2017-04-15T00:31:31.632Z,1009.2
2017-04-15T00:32:41.546Z,1009.2
2017-04-15T00:33:51.783Z,1009.18
2017-04-15T00:35:02.013Z,1009.17
2017-04-15T00:36:11.942Z,1009.16
2017-04-15T00:37:21.852Z,1009.11
2017-04-15T00:38:32.102Z,1009.11
2017-04-15T00:39:42.329Z,1009.15
2017-04-15T00:40:52.244Z,1009.14
2017-04-15T00:42:02.471Z,1009.11
2017-04-15T00:43:12.907Z,1009.1
2017-04-15T00:44:22.834Z,1009.07
2017-04-15T00:45:33.128Z,1009.05
2017-04-15T00:46:43.040Z,1009.05
2017-04-15T00:47:52.650Z,1009.03
2017-04-15T00:49:02.573Z,1009.06
2017-04-15T00:50:12.806Z,1009.1
2017-04-15T00:51:22.724Z,1009.07
2017-04-15T00:52:32.651Z,1009.12
2017-04-15T00:53:42.885Z,1009.11
2017-04-15T00:54:53.114Z,1009.07
2017-04-15T00:56:03.341Z,1009.1
2017-04-15T00:57:13.251Z,1009.09
2017-04-15T00:58:23.482Z,1009.11
2017-04-15T00:59:33.395Z,1009.06
2017-04-15T01:00:43.313Z,1009.07
2017-04-15T01:01:52.911Z,1009.02
2017-04-15T01:03:03.132Z,1008.99
2017-04-15T01:04:13.050Z,1009.01
2017-04-15T01:05:23.289Z,1008.98
2017-04-15T01:06:33.515Z,1008.96
2017-04-15T01:07:43.737Z,1009.01
2017-04-15T01:08:53.669Z,1008.95
2017-04-15T01:10:03.896Z,1009.02
2017-04-15T01:11:14.150Z,1008.91
2017-04-15T01:12:24.721Z,1008.93
2017-04-15T01:13:34.947Z,1008.91
2017-04-15T01:14:45.173Z,1008.95
2017-04-15T01:15:55.463Z,1008.95
2017-04-15T01:17:05.374Z,1008.99
2017-04-15T01:18:15.610Z,1008.97
2017-04-15T01:19:25.851Z,1008.95
2017-04-15T01:20:35.767Z,1008.99
2017-04-15T01:21:45.991Z,1008.96
2017-04-15T01:22:55.906Z,1008.94
2017-04-15T01:24:06.147Z,1008.95
2017-04-15T01:25:16.371Z,1008.9
2017-04-15T01:26:26.285Z,1008.9
2017-04-15T01:27:36.511Z,1008.89
2017-04-15T01:28:46.423Z,1008.9
2017-04-15T01:29:56.026Z,1008.89
2017-04-15T01:31:06.250Z,1008.85
2017-04-15T01:32:16.472Z,1008.88
2017-04-15T01:33:26.400Z,1008.93
2017-04-15T01:34:36.321Z,1008.79
2017-04-15T01:35:46.241Z,1008.74
2017-04-15T01:36:56.467Z,1008.83
2017-04-15T01:38:06.694Z,1008.77
2017-04-15T01:39:16.612Z,1008.81
2017-04-15T01:40:26.843Z,1008.77
2017-04-15T01:41:37.142Z,1008.74
2017-04-15T01:42:47.429Z,1008.77
2017-04-15T01:43:57.670Z,1008.73
2017-04-15T01:45:07.600Z,1008.75
2017-04-15T01:46:17.510Z,1008.76
2017-04-15T01:47:27.738Z,1008.78
2017-04-15T01:48:37.661Z,1008.75
2017-04-15T01:49:47.588Z,1008.71
2017-04-15T01:50:57.521Z,1008.69
2017-04-15T01:52:07.123Z,1008.67
2017-04-15T01:53:17.367Z,1008.65
2017-04-15T01:54:27.306Z,1008.64
2017-04-15T01:55:37.228Z,1008.67
2017-04-15T01:56:47.450Z,1008.64
2017-04-15T01:57:57.676Z,1008.68
2017-04-15T01:59:07.904Z,1008.65
2017-04-15T02:00:18.147Z,1008.61
2017-04-15T02:01:28.068Z,1008.63
2017-04-15T02:02:37.663Z,1008.61
2017-04-15T02:03:47.909Z,1008.69
2017-04-15T02:04:57.821Z,1008.65
2017-04-15T02:06:08.050Z,1008.61
2017-04-15T02:07:18.288Z,1008.59
2017-04-15T02:08:28.505Z,1008.6
2017-04-15T02:09:38.737Z,1008.6
2017-04-15T02:10:48.654Z,1008.58
2017-04-15T02:11:58.879Z,1008.56
2017-04-15T02:13:08.485Z,1008.55
2017-04-15T02:14:18.737Z,1008.57
2017-04-15T02:15:28.966Z,1008.54
2017-04-15T02:16:39.201Z,1008.53
2017-04-15T02:17:49.426Z,1008.54
2017-04-15T02:18:59.027Z,1008.52
2017-04-15T02:20:09.258Z,1008.51
2017-04-15T02:21:19.503Z,1008.49
2017-04-15T02:22:29.735Z,1008.48
2017-04-15T02:23:39.652Z,1008.49
2017-04-15T02:24:49.880Z,1008.47
2017-04-15T02:26:00.102Z,1008.48
2017-04-15T02:27:10.015Z,1008.48
2017-04-15T02:28:19.932Z,1008.46
2017-04-15T02:29:30.152Z,1008.42
2017-04-15T02:30:40.378Z,1008.41
2017-04-15T02:31:49.973Z,1008.34
2017-04-15T02:33:00.202Z,1008.33
2017-04-15T02:34:10.112Z,1008.36
2017-04-15T02:35:20.333Z,1008.33
2017-04-15T02:36:30.563Z,1008.32
2017-04-15T02:37:40.803Z,1008.29
2017-04-15T02:38:50.907Z,1008.29
2017-04-15T02:40:00.505Z,1008.3
2017-04-15T02:41:10.739Z,1008.25
2017-04-15T02:42:20.661Z,1008.27
2017-04-15T02:43:30.578Z,1008.26
2017-04-15T02:44:40.495Z,1008.24
2017-04-15T02:45:50.417Z,1008.24
2017-04-15T02:47:00.647Z,1008.26
2017-04-15T02:48:10.555Z,1008.23
2017-04-15T02:49:20.162Z,1008.27
2017-04-15T02:50:30.076Z,1008.27
2017-04-15T02:51:40.297Z,1008.33
2017-04-15T02:52:50.213Z,1008.31
2017-04-15T02:54:00.454Z,1008.31
2017-04-15T02:55:10.684Z,1008.23
2017-04-15T02:56:20.288Z,1008.25
2017-04-15T02:57:30.511Z,1008.21
2017-04-15T02:58:40.733Z,1008.22
2017-04-15T02:59:50.645Z,1008.18
2017-04-15T03:01:00.568Z,1008.19
2017-04-15T03:02:10.787Z,1008.17
2017-04-15T03:03:20.703Z,1008.14
2017-04-15T03:04:30.956Z,1008.14
2017-04-15T03:05:41.181Z,1008.15
2017-04-15T03:06:51.092Z,1008.14
2017-04-15T03:08:01.338Z,1008.13
2017-04-15T03:09:11.252Z,1008.11
2017-04-15T03:10:20.861Z,1008.09
2017-04-15T03:11:31.087Z,1008.14
2017-04-15T03:12:41.323Z,1008.16
2017-04-15T03:13:51.233Z,1008.18
2017-04-15T03:15:01.685Z,1008.2
2017-04-15T03:16:11.620Z,1008.18
2017-04-15T03:17:21.845Z,1008.19
2017-04-15T03:18:32.080Z,1008.16
2017-04-15T03:19:41.688Z,1008.13
2017-04-15T03:20:51.914Z,1008.16
2017-04-15T03:22:02.148Z,1008.09
2017-04-15T03:23:12.376Z,1008.11
2017-04-15T03:24:22.599Z,1008.08
2017-04-15T03:25:32.822Z,1008.08
2017-04-15T03:26:43.053Z,1008.07
2017-04-15T03:27:52.966Z,1008.08
2017-04-15T03:29:03.182Z,1008.02
2017-04-15T03:30:13.109Z,1008.01
2017-04-15T03:31:23.339Z,1008
2017-04-15T03:32:33.565Z,1007.98
2017-04-15T03:33:43.816Z,1007.99
2017-04-15T03:34:53.728Z,1007.97
2017-04-15T03:36:03.952Z,1007.95
2017-04-15T03:37:14.186Z,1007.95
2017-04-15T03:38:24.097Z,1007.96
2017-04-15T03:39:34.030Z,1007.91
2017-04-15T03:40:44.261Z,1007.91
2017-04-15T03:41:54.499Z,1007.92
2017-04-15T03:43:04.850Z,1007.92
2017-04-15T03:44:15.080Z,1007.92
2017-04-15T03:45:25.315Z,1007.95
2017-04-15T03:46:35.412Z,1007.9
2017-04-15T03:47:45.664Z,1007.89
2017-04-15T03:48:55.894Z,1007.97
2017-04-15T03:50:05.834Z,1007.91
2017-04-15T03:51:16.060Z,1007.94
2017-04-15T03:52:25.969Z,1007.95
2017-04-15T03:53:36.204Z,1007.94
2017-04-15T03:54:46.118Z,1007.95
2017-04-15T03:55:56.030Z,1007.89
2017-04-15T03:57:06.268Z,1007.93
2017-04-15T03:58:16.184Z,1007.91
2017-04-15T03:59:26.099Z,1007.91
2017-04-15T04:00:36.322Z,1007.93
2017-04-15T04:01:46.241Z,1007.95
2017-04-15T04:02:56.194Z,1007.93
2017-04-15T04:04:06.142Z,1007.93
2017-04-15T04:05:16.384Z,1007.96
2017-04-15T04:06:26.302Z,1007.94
2017-04-15T04:07:36.244Z,1007.94
2017-04-15T04:08:46.472Z,1007.89
2017-04-15T04:09:56.390Z,1007.91
2017-04-15T04:11:06.311Z,1007.89
2017-04-15T04:12:16.222Z,1007.87
2017-04-15T04:13:26.150Z,1007.84
2017-04-15T04:14:36.374Z,1007.84
2017-04-15T04:15:46.611Z,1007.81
2017-04-15T04:16:56.523Z,1007.78
2017-04-15T04:18:06.436Z,1007.76
2017-04-15T04:19:16.836Z,1007.71
2017-04-15T04:20:27.065Z,1007.71
2017-04-15T04:21:36.977Z,1007.7
2017-04-15T04:22:47.205Z,1007.73
2017-04-15T04:23:57.429Z,1007.7
2017-04-15T04:25:07.038Z,1007.71
2017-04-15T04:26:16.953Z,1007.74
2017-04-15T04:27:27.190Z,1007.74
2017-04-15T04:28:37.427Z,1007.74
2017-04-15T04:29:47.341Z,1007.71
2017-04-15T04:30:57.249Z,1007.69
2017-04-15T04:32:07.472Z,1007.69
2017-04-15T04:33:17.714Z,1007.68
2017-04-15T04:34:27.952Z,1007.67
2017-04-15T04:35:38.170Z,1007.66
2017-04-15T04:36:48.393Z,1007.7
2017-04-15T04:37:57.675Z,1007.67
2017-04-15T04:39:07.902Z,1007.7
2017-04-15T04:40:18.131Z,1007.69
2017-04-15T04:41:28.363Z,1007.68
2017-04-15T04:42:38.601Z,1007.68
2017-04-15T04:43:48.526Z,1007.63
2017-04-15T04:44:58.136Z,1007.61
2017-04-15T04:46:08.376Z,1007.6
2017-04-15T04:47:18.618Z,1007.56
2017-04-15T04:48:28.839Z,1007.57
2017-04-15T04:49:39.073Z,1007.53
2017-04-15T04:50:48.998Z,1007.56
2017-04-15T04:51:59.223Z,1007.56
2017-04-15T04:53:09.454Z,1007.57
2017-04-15T04:54:19.462Z,1007.57
2017-04-15T04:55:29.792Z,1007.56
2017-04-15T04:56:40.023Z,1007.52
2017-04-15T04:57:50.322Z,1007.54
2017-04-15T04:59:00.562Z,1007.51
2017-04-15T05:00:10.485Z,1007.49
2017-04-15T05:01:20.713Z,1007.47
2017-04-15T05:02:30.951Z,1007.46
2017-04-15T05:03:40.864Z,1007.47
2017-04-15T05:04:50.477Z,1007.43
2017-04-15T05:06:00.400Z,1007.43
2017-04-15T05:07:10.324Z,1007.37
2017-04-15T05:08:20.552Z,1007.39
2017-04-15T05:09:30.781Z,1007.4
2017-04-15T05:10:41.012Z,1007.38
2017-04-15T05:11:51.233Z,1007.36
2017-04-15T05:13:01.455Z,1007.37
2017-04-15T05:14:11.363Z,1007.36
2017-04-15T05:15:21.598Z,1007.3
2017-04-15T05:16:31.826Z,1007.31
2017-04-15T05:17:41.421Z,1007.31
2017-04-15T05:18:51.647Z,1007.32
2017-04-15T05:20:01.573Z,1007.23
2017-04-15T05:21:11.495Z,1007.22
2017-04-15T05:22:21.403Z,1007.25
2017-04-15T05:23:31.328Z,1007.21
2017-04-15T05:24:40.937Z,1007.27
2017-04-15T05:25:51.167Z,1007.21
2017-04-15T05:27:01.082Z,1007.18
2017-04-15T05:28:11.307Z,1007.2
2017-04-15T05:29:21.540Z,1007.21
2017-04-15T05:30:31.329Z,1007.21
2017-04-15T05:31:40.930Z,1007.2
2017-04-15T05:32:51.156Z,1007.2
2017-04-15T05:34:01.193Z,1007.21
2017-04-15T05:35:11.136Z,1007.17
2017-04-15T05:36:20.735Z,1007.18
2017-04-15T05:37:30.433Z,1007.16
2017-04-15T05:38:40.853Z,1007.16
2017-04-15T05:39:51.082Z,1007.14
2017-04-15T05:41:01.303Z,1007.09
2017-04-15T05:42:11.217Z,1007.09
2017-04-15T05:43:21.445Z,1007.05
2017-04-15T05:44:31.672Z,1007.04
2017-04-15T05:45:41.930Z,1007.03
2017-04-15T05:46:51.839Z,1007
2017-04-15T05:48:02.066Z,1007
2017-04-15T05:49:11.980Z,1006.96
2017-04-15T05:50:22.216Z,1006.96
2017-04-15T05:51:33.121Z,1006.92
2017-04-15T05:52:43.353Z,1006.92
2017-04-15T05:53:53.585Z,1006.88
2017-04-15T05:55:03.820Z,1006.88
2017-04-15T05:56:14.037Z,1006.89
2017-04-15T05:57:24.277Z,1006.83
2017-04-15T05:58:33.878Z,1006.84
2017-04-15T05:59:44.106Z,1006.84
2017-04-15T06:00:54.016Z,1006.84
2017-04-15T06:02:03.948Z,1006.82
2017-04-15T06:03:13.861Z,1006.78
2017-04-15T06:04:24.085Z,1006.77
2017-04-15T06:05:34.322Z,1006.75
2017-04-15T06:06:44.551Z,1006.73
2017-04-15T06:07:54.773Z,1006.72
2017-04-15T06:09:04.697Z,1006.72
2017-04-15T06:10:14.932Z,1006.67
2017-04-15T06:11:25.172Z,1006.74
2017-04-15T06:12:35.086Z,1006.71
2017-04-15T06:13:45.312Z,1006.67
2017-04-15T06:14:55.549Z,1006.66
2017-04-15T06:16:05.783Z,1006.62
2017-04-15T06:17:15.698Z,1006.6
2017-04-15T06:18:25.937Z,1006.61
2017-04-15T06:19:36.160Z,1006.58
2017-04-15T06:20:46.069Z,1006.51
2017-04-15T06:21:56.299Z,1006.51
2017-04-15T06:23:06.539Z,1006.47
2017-04-15T06:24:16.821Z,1006.53
2017-04-15T06:25:26.757Z,1006.49
2017-04-15T06:26:36.978Z,1006.48
2017-04-15T06:27:47.205Z,1006.46
2017-04-15T06:28:57.335Z,1006.46
2017-04-15T06:30:06.940Z,1006.49
2017-04-15T06:31:16.852Z,1006.47
2017-04-15T06:32:27.116Z,1006.45
2017-04-15T06:33:37.032Z,1006.48
2017-04-15T06:36:06.535Z,1006.46
2017-04-15T06:37:16.459Z,1006.45
2017-04-15T06:38:26.703Z,1006.45
2017-04-15T06:39:36.940Z,1006.5
2017-04-15T06:40:46.866Z,1006.49
2017-04-15T06:41:56.793Z,1006.51
2017-04-15T06:43:07.046Z,1006.49
2017-04-15T06:44:17.292Z,1006.48
2017-04-15T06:45:26.905Z,1006.51
2017-04-15T06:46:36.525Z,1006.52
2017-04-15T06:47:46.450Z,1006.53
2017-04-15T06:48:56.401Z,1006.51
2017-04-15T06:50:06.327Z,1006.49
2017-04-15T06:51:16.252Z,1006.5
2017-04-15T06:52:26.180Z,1006.5
2017-04-15T06:53:36.422Z,1006.51
2017-04-15T06:54:46.347Z,1006.45
2017-04-15T06:55:56.275Z,1006.46
2017-04-15T06:57:06.520Z,1006.44
2017-04-15T06:58:16.444Z,1006.4
2017-04-15T06:59:26.373Z,1006.4
2017-04-15T07:00:36.305Z,1006.4
2017-04-15T07:01:46.554Z,1006.38
2017-04-15T07:02:56.497Z,1006.37
2017-04-15T07:04:06.426Z,1006.35
2017-04-15T07:05:16.677Z,1006.32
2017-04-15T07:06:26.915Z,1006.29
2017-04-15T07:07:37.157Z,1006.34
2017-04-15T07:08:47.394Z,1006.3
2017-04-15T07:09:57.642Z,1006.28
2017-04-15T07:11:07.571Z,1006.24
2017-04-15T07:12:17.807Z,1006.23
2017-04-15T07:13:27.414Z,1006.17
2017-04-15T07:14:37.652Z,1006.16
2017-04-15T07:15:47.884Z,1006.16
2017-04-15T07:16:58.115Z,1006.13
2017-04-15T07:18:08.642Z,1006.08
2017-04-15T07:19:18.877Z,1006.04
2017-04-15T07:20:28.501Z,1006.04
2017-04-15T07:21:38.638Z,1005.96
2017-04-15T07:22:48.598Z,1005.94
2017-04-15T07:23:58.840Z,1005.86
2017-04-15T07:25:09.193Z,1005.79
2017-04-15T07:26:19.114Z,1005.84
2017-04-15T07:27:29.061Z,1005.74
2017-04-15T07:28:39.304Z,1005.77
2017-04-15T07:29:49.546Z,1005.7
2017-04-15T07:30:59.787Z,1005.74
2017-04-15T07:32:10.024Z,1005.73
2017-04-15T07:33:20.266Z,1005.74
2017-04-15T07:34:30.195Z,1005.75
2017-04-15T07:35:40.435Z,1005.73
2017-04-15T07:36:50.363Z,1005.66
2017-04-15T07:38:00.599Z,1005.66
2017-04-15T07:39:10.844Z,1005.64
2017-04-15T07:40:20.769Z,1005.65
2017-04-15T07:41:30.692Z,1005.63
2017-04-15T07:42:40.935Z,1005.67
2017-04-15T07:43:51.215Z,1005.7
2017-04-15T07:45:01.138Z,1005.68
2017-04-15T07:46:10.761Z,1005.67
2017-04-15T07:47:20.691Z,1005.71
2017-04-15T07:48:30.619Z,1005.73
2017-04-15T07:49:40.862Z,1005.75
2017-04-15T07:50:50.785Z,1005.73
2017-04-15T07:52:00.716Z,1005.64
2017-04-15T07:53:10.647Z,1005.71
2017-04-15T07:54:20.900Z,1005.66
2017-04-15T07:55:31.148Z,1005.73
2017-04-15T07:56:41.075Z,1005.72
2017-04-15T07:57:51.329Z,1005.75
2017-04-15T07:59:01.574Z,1005.66
2017-04-15T08:00:11.652Z,1005.69
2017-04-15T08:01:21.296Z,1005.69
2017-04-15T08:02:31.534Z,1005.68
2017-04-15T08:03:41.855Z,1005.72
2017-04-15T08:04:52.103Z,1005.66
2017-04-15T08:06:02.030Z,1005.62
2017-04-15T08:07:12.269Z,1005.64
2017-04-15T08:08:21.994Z,1005.65
2017-04-15T08:09:32.459Z,1005.67
2017-04-15T08:10:42.714Z,1005.63
2017-04-15T08:11:52.948Z,1005.61
2017-04-15T08:13:02.881Z,1005.58
2017-04-15T08:14:13.127Z,1005.58
2017-04-15T08:15:22.756Z,1005.59
2017-04-15T08:16:32.995Z,1005.62
2017-04-15T08:17:42.940Z,1005.62
2017-04-15T08:18:53.194Z,1005.67
2017-04-15T08:20:03.446Z,1005.6
2017-04-15T08:21:13.063Z,1005.58
2017-04-15T08:22:22.996Z,1005.56
2017-04-15T08:23:33.252Z,1005.64
2017-04-15T08:24:42.863Z,1005.56
2017-04-15T08:25:53.108Z,1005.59
2017-04-15T08:27:03.343Z,1005.56
2017-04-15T08:28:13.270Z,1005.53
2017-04-15T08:29:23.520Z,1005.53
2017-04-15T08:30:33.453Z,1005.56
2017-04-15T08:31:43.691Z,1005.48
2017-04-15T08:32:53.927Z,1005.51
2017-04-15T08:34:04.169Z,1005.52
2017-04-15T08:35:14.099Z,1005.53
2017-04-15T08:36:24.336Z,1005.53
2017-04-15T08:37:34.582Z,1005.45
2017-04-15T08:38:44.517Z,1005.51
2017-04-15T08:39:54.778Z,1005.48
2017-04-15T08:41:04.387Z,1005.46
2017-04-15T08:42:14.319Z,1005.44
2017-04-15T08:43:24.241Z,1005.43
2017-04-15T08:44:34.585Z,1005.42
2017-04-15T08:45:44.526Z,1005.41
2017-04-15T08:46:54.456Z,1005.42
2017-04-15T08:48:04.695Z,1005.4
2017-04-15T08:49:14.747Z,1005.35
2017-04-15T08:50:24.679Z,1005.36
2017-04-15T08:51:35.097Z,1005.36
2017-04-15T08:52:45.334Z,1005.4
2017-04-15T08:53:55.581Z,1005.43
2017-04-15T08:55:05.513Z,1005.35
2017-04-15T08:56:15.750Z,1005.31
2017-04-15T08:57:25.676Z,1005.34
2017-04-15T08:58:35.605Z,1005.31
2017-04-15T08:59:45.535Z,1005.3
2017-04-15T09:00:55.146Z,1005.27
2017-04-15T09:02:05.378Z,1005.29
2017-04-15T09:03:15.309Z,1005.29
2017-04-15T09:04:25.237Z,1005.25
2017-04-15T09:05:35.164Z,1005.29
2017-04-15T09:06:45.406Z,1005.28
2017-04-15T09:07:55.328Z,1005.24
2017-04-15T09:09:05.262Z,1005.26
2017-04-15T09:10:15.506Z,1005.21
2017-04-15T09:11:25.436Z,1005.23
2017-04-15T09:12:35.678Z,1005.28
2017-04-15T09:13:45.610Z,1005.19
2017-04-15T09:14:55.541Z,1005.22
2017-04-15T09:16:05.464Z,1005.21
2017-04-15T09:17:15.702Z,1005.17
2017-04-15T09:18:25.624Z,1005.22
2017-04-15T09:19:35.559Z,1005.22
2017-04-15T09:20:45.800Z,1005.2
2017-04-15T09:21:56.032Z,1005.19
2017-04-15T09:23:05.954Z,1005.17
2017-04-15T09:24:15.572Z,1005.16
2017-04-15T09:25:25.818Z,1005.17
2017-04-15T09:26:36.061Z,1005.17
2017-04-15T09:27:45.987Z,1005.1
2017-04-15T09:28:56.219Z,1005.13
2017-04-15T09:30:05.837Z,1005.14
2017-04-15T09:31:15.783Z,1005.09
2017-04-15T09:32:26.033Z,1005.16
2017-04-15T09:33:36.333Z,1005.13
2017-04-15T09:34:46.267Z,1005.14
2017-04-15T09:35:56.513Z,1005.16
2017-04-15T09:37:06.443Z,1005.1
2017-04-15T09:38:16.679Z,1005.07
2017-04-15T09:39:26.602Z,1005.11
2017-04-15T09:40:36.855Z,1005.02
2017-04-15T09:41:47.102Z,1004.99
2017-04-15T09:42:57.346Z,1005.05
2017-04-15T09:44:07.274Z,1005.05
2017-04-15T09:45:16.582Z,1004.99
2017-04-15T09:46:26.820Z,1005.12
2017-04-15T09:47:37.059Z,1005.03
2017-04-15T09:48:46.372Z,1005.07
2017-04-15T09:49:56.613Z,1005
2017-04-15T09:51:06.852Z,1004.96
2017-04-15T09:52:16.775Z,1004.91
2017-04-15T09:53:27.021Z,1004.99
2017-04-15T09:54:37.267Z,1005.06
2017-04-15T09:55:47.502Z,1004.98
2017-04-15T09:56:57.429Z,1004.99
2017-04-15T09:58:07.354Z,1005.06
2017-04-15T09:59:17.620Z,1005.04
2017-04-15T10:00:27.559Z,1005.04
2017-04-15T10:01:37.179Z,1004.98
2017-04-15T10:02:47.109Z,1004.92
2017-04-15T10:03:57.349Z,1005.03
2017-04-15T10:05:07.274Z,1004.92
2017-04-15T10:06:16.899Z,1004.89
2017-04-15T10:07:27.138Z,1004.83
2017-04-15T10:08:37.571Z,1004.97
2017-04-15T10:09:47.907Z,1005
2017-04-15T10:10:58.150Z,1004.9
2017-04-15T10:12:08.389Z,1004.92
2017-04-15T10:13:18.642Z,1004.93
2017-04-15T10:14:28.963Z,1004.92
2017-04-15T10:15:39.329Z,1004.86
2017-04-15T10:16:49.583Z,1004.85
2017-04-15T10:17:59.820Z,1004.89
2017-04-15T10:19:10.058Z,1004.83
2017-04-15T10:20:20.304Z,1004.81
2017-04-15T10:21:30.547Z,1004.87
2017-04-15T10:22:40.808Z,1004.86
2017-04-15T10:23:50.732Z,1004.9
2017-04-15T10:25:00.349Z,1004.83
2017-04-15T10:26:10.592Z,1004.83
2017-04-15T10:27:20.527Z,1004.8
2017-04-15T10:28:30.452Z,1004.82
2017-04-15T10:29:40.395Z,1004.74
2017-04-15T10:30:50.637Z,1004.8
2017-04-15T10:32:00.882Z,1004.76
2017-04-15T10:33:11.118Z,1004.67
2017-04-15T10:34:21.043Z,1004.74
2017-04-15T10:35:30.974Z,1004.66
2017-04-15T10:36:40.896Z,1004.68
2017-04-15T10:37:51.138Z,1004.63
2017-04-15T10:39:01.063Z,1004.64
2017-04-15T10:40:10.679Z,1004.61
2017-04-15T10:41:20.916Z,1004.65
2017-04-15T10:42:31.156Z,1004.7
2017-04-15T10:43:41.093Z,1004.67
2017-04-15T10:44:51.344Z,1004.67
2017-04-15T10:46:01.583Z,1004.64
2017-04-15T10:47:11.830Z,1004.67
2017-04-15T10:48:21.761Z,1004.58
2017-04-15T10:49:31.376Z,1004.59
2017-04-15T10:50:41.617Z,1004.58
2017-04-15T10:51:51.539Z,1004.62
2017-04-15T10:53:02.307Z,1004.65
2017-04-15T10:54:11.931Z,1004.58
2017-04-15T10:55:21.862Z,1004.6
2017-04-15T10:56:32.150Z,1004.6
2017-04-15T10:57:42.255Z,1004.56
2017-04-15T10:58:52.184Z,1004.57
2017-04-15T11:00:02.424Z,1004.55
2017-04-15T11:01:12.661Z,1004.5
2017-04-15T11:02:22.894Z,1004.52
2017-04-15T11:03:33.128Z,1004.5
2017-04-15T11:04:43.386Z,1004.55
2017-04-15T11:05:53.626Z,1004.44
2017-04-15T11:07:03.554Z,1004.47
2017-04-15T11:08:13.795Z,1004.44
2017-04-15T11:09:24.044Z,1004.42
2017-04-15T11:10:33.970Z,1004.44
2017-04-15T11:11:43.900Z,1004.51
2017-04-15T11:12:54.143Z,1004.48
2017-04-15T11:14:03.768Z,1004.43
2017-04-15T11:15:13.747Z,1004.44
2017-04-15T11:16:24.841Z,1004.38
2017-04-15T11:17:35.677Z,1004.4
2017-04-15T11:18:46.847Z,1004.4
2017-04-15T11:19:57.990Z,1004.41
2017-04-15T11:21:08.738Z,1004.34
2017-04-15T11:22:18.991Z,1004.37
2017-04-15T11:23:30.169Z,1004.38
2017-04-15T11:24:41.271Z,1004.46
2017-04-15T11:25:52.507Z,1004.37
2017-04-15T11:27:03.567Z,1004.48
2017-04-15T11:28:13.901Z,1004.42
2017-04-15T11:29:23.879Z,1004.42
2017-04-15T11:30:34.577Z,1004.34
2017-04-15T11:31:45.590Z,1004.35
2017-04-15T11:32:56.122Z,1004.43
2017-04-15T11:34:06.554Z,1004.3
2017-04-15T11:35:16.958Z,1004.41
2017-04-15T11:36:27.568Z,1004.43
2017-04-15T11:37:38.138Z,1004.28
2017-04-15T11:38:48.030Z,1004.31
2017-04-15T11:39:58.205Z,1004.3
2017-04-15T11:41:08.335Z,1004.33
2017-04-15T11:42:18.635Z,1004.33
2017-04-15T11:43:28.888Z,1004.23
2017-04-15T11:44:39.165Z,1004.33
2017-04-15T11:45:49.320Z,1004.31
2017-04-15T11:46:59.506Z,1004.34
2017-04-15T11:48:09.147Z,1004.23
2017-04-15T11:49:19.588Z,1004.2
2017-04-15T11:50:30.046Z,1004.17
2017-04-15T11:51:40.456Z,1004.14
2017-04-15T11:52:51.080Z,1004.11
2017-04-15T11:54:01.566Z,1004.11
2017-04-15T11:55:11.766Z,1004.1
2017-04-15T11:56:22.402Z,1004.2
2017-04-15T11:57:32.401Z,1004.12
2017-04-15T11:58:42.157Z,1004.11
2017-04-15T11:59:52.624Z,1004.11
2017-04-15T12:01:02.812Z,1004.22
2017-04-15T12:02:13.415Z,1004.14
2017-04-15T12:03:24.098Z,1004.23
2017-04-15T12:04:34.333Z,1004.3
2017-04-15T12:05:44.525Z,1004.12
2017-04-15T12:06:54.749Z,1004.15
2017-04-15T12:08:04.346Z,1004.11
2017-04-15T12:09:14.877Z,1004.18
2017-04-15T12:10:25.102Z,1004.02
2017-04-15T12:11:35.576Z,1004.03
2017-04-15T12:12:46.064Z,1004.12
2017-04-15T12:13:55.637Z,1004.06
2017-04-15T12:15:05.449Z,1003.99
2017-04-15T12:16:16.059Z,1004.03
2017-04-15T12:17:26.729Z,1004.18
2017-04-15T12:18:36.760Z,1004.02
2017-04-15T12:19:47.409Z,1004.23
2017-04-15T12:20:57.629Z,1004.1
2017-04-15T12:22:08.138Z,1003.98
2017-04-15T12:23:17.887Z,1003.96
2017-04-15T12:24:28.028Z,1003.87
2017-04-15T12:25:38.362Z,1003.87
2017-04-15T12:26:48.041Z,1003.85
2017-04-15T12:27:58.063Z,1003.87
2017-04-15T12:29:08.322Z,1003.8
2017-04-15T12:30:17.944Z,1003.77
2017-04-15T12:31:27.871Z,1003.85
2017-04-15T12:32:37.796Z,1003.89
2017-04-15T12:33:48.040Z,1003.95
2017-04-15T12:34:58.488Z,1003.88
2017-04-15T12:36:08.725Z,1003.84
2017-04-15T12:37:18.965Z,1003.86
2017-04-15T12:38:27.635Z,1003.82
2017-04-15T12:39:37.568Z,1003.84
2017-04-15T12:40:47.802Z,1003.67
2017-04-15T12:41:58.049Z,1003.72
2017-04-15T12:43:08.290Z,1003.7
2017-04-15T12:44:18.222Z,1003.7
2017-04-15T12:45:28.157Z,1003.7
2017-04-15T12:46:38.403Z,1003.87
2017-04-15T12:47:48.334Z,1003.67
2017-04-15T12:48:57.631Z,1003.71
2017-04-15T12:50:07.250Z,1003.73
2017-04-15T12:51:17.498Z,1003.67
2017-04-15T12:52:27.732Z,1003.74
2017-04-15T12:53:37.980Z,1003.62
2017-04-15T12:54:48.377Z,1003.67
2017-04-15T12:55:58.629Z,1003.67
2017-04-15T12:57:08.554Z,1003.6
2017-04-15T12:58:18.475Z,1003.58
2017-04-15T12:59:28.097Z,1003.61
2017-04-15T13:00:38.343Z,1003.6
2017-04-15T13:01:48.273Z,1003.53
2017-04-15T13:02:58.204Z,1003.54
2017-04-15T13:04:08.450Z,1003.58
2017-04-15T13:05:18.690Z,1003.75
2017-04-15T13:06:28.618Z,1003.82
2017-04-15T13:07:38.230Z,1004.21
2017-04-15T13:08:48.157Z,1004.06
2017-04-15T13:09:58.400Z,1004.07
2017-04-15T13:11:08.638Z,1004.13
2017-04-15T13:12:18.561Z,1004.19
2017-04-15T13:13:28.799Z,1004.23
2017-04-15T13:14:39.042Z,1004.11
2017-04-15T13:15:49.278Z,1004.13
2017-04-15T13:16:59.515Z,1004.14
2017-04-15T13:18:09.758Z,1003.99
2017-04-15T13:19:20.003Z,1004.05
2017-04-15T13:20:29.927Z,1003.94
2017-04-15T13:21:40.169Z,1003.88
2017-04-15T13:22:50.417Z,1003.82
2017-04-15T13:24:00.036Z,1003.82
2017-04-15T13:25:09.648Z,1003.86
2017-04-15T13:26:19.259Z,1003.76
2017-04-15T13:27:29.494Z,1003.73
2017-04-15T13:28:39.426Z,1003.8
2017-04-15T13:29:49.667Z,1003.76
2017-04-15T13:30:59.287Z,1003.75
2017-04-15T13:32:09.531Z,1003.82
2017-04-15T13:33:19.786Z,1003.78
2017-04-15T13:34:30.023Z,1003.79
2017-04-15T13:35:39.956Z,1003.84
2017-04-15T13:36:49.877Z,1003.95
2017-04-15T13:37:59.515Z,1003.85
2017-04-15T13:39:09.775Z,1003.77
2017-04-15T13:40:20.070Z,1003.84
2017-04-15T13:41:29.888Z,1003.82
2017-04-15T13:42:39.859Z,1003.86
2017-04-15T13:43:49.786Z,1003.82
2017-04-15T13:44:59.718Z,1003.83
2017-04-15T13:46:09.959Z,1003.83
2017-04-15T13:47:20.207Z,1003.82
2017-04-15T13:48:29.828Z,1003.83
2017-04-15T13:49:39.759Z,1003.8
2017-04-15T13:50:49.690Z,1003.84
2017-04-15T13:51:59.620Z,1003.71
2017-04-15T13:53:09.864Z,1003.8
2017-04-15T13:54:19.806Z,1003.84
2017-04-15T13:55:29.746Z,1003.92
2017-04-15T13:56:39.984Z,1003.93
2017-04-15T13:57:50.230Z,1003.99
2017-04-15T13:59:00.469Z,1003.94
2017-04-15T14:00:10.710Z,1003.89
2017-04-15T14:01:20.953Z,1003.9
2017-04-15T14:02:31.190Z,1003.94
2017-04-15T14:03:41.122Z,1003.96
2017-04-15T14:04:50.744Z,1003.91
2017-04-15T14:06:00.676Z,1003.88
2017-04-15T14:07:10.917Z,1003.85
2017-04-15T14:08:20.609Z,1003.87
2017-04-15T14:09:31.311Z,1003.94
2017-04-15T14:10:42.401Z,1003.95
2017-04-15T14:11:53.475Z,1003.84